メインページ
METAR-TAF:

METAR-TAF

空港 :

ブランドン, マニトバ州, カナダ

緯度: 49-55N, 経度: 099-57W, 海抜: 409m

現時点の気象観測

当レポートは41分前の04:00(UTC)に作成
東/北東の風 8kt、最大15ktの突風を伴う
気温 -10°C
湿度 92%
気圧 1019 hPa
視程: 8.0km
高度600ftの曇り
小雪, 靄

METAR: CYBR 270400Z 07008G15KT 5SM -SN BR OVC006 M10/M11 A3008 RMK ST8 SLP221

時間: 22:41 (04:41 UTC)

予報

当レポートは3時間20分前の01:21(UTC)に作成
予報は27日の 01時(UTC)から 27日の 12時(UTC)まで有効
の風 8kt
視程: 10km
高度400ftの雲は散在している
高度1000ftの曇り
27日の 01時(UTC)から 27日の 06時(UTC)まで一時的に
視程: 6.4km
高度400ftの曇り
小雪, 靄
27日の 03時(UTC)から 27日の 05時(UTC)まで徐々に
の風 5kt
27日の 0600時(UTC)から
の風 5kt
視程: 10km
高度600ftの雲はほとんどない
高度1500ftの千切れ雲あり
27日の 06時(UTC)から 27日の 12時(UTC)まで一時的に
高度600ftの千切れ雲あり
高度1500ftの曇り

TAF: CYBR 270121Z 2701/2712 08008KT P6SM SCT004 OVC010 TEMPO 2701/2706 4SM -SN BR OVC004 BECMG 2703/2705 36005KT FM270600 36005KT P6SM FEW006 BKN015 TEMPO 2706/2712 BKN006 OVC015 RMK NXT FCST BY 270600Z

4,000以上の空港の気象観測と天気予報(METAR報とTAF報)

利用可能な観測所は地図上に黄色い丸と赤い丸で示す。

丸の上にカーソルを重ねると観測所名を参照できる。

次にクリックすると気象観測と天気予報を参照できる。

マップの切り替え:黒色「×」印の緑ボタンをクリックして拡大、「-」印の緑ボタンをクリックして縮小、緑色の三角印をクリックして隣りの地図に切り替え


METAR-TAF: